Time;durP1;ratioP1;P1;durP2;ratioP2;P2;SDS_P1;SDS_P2;PMS_P1;PMS_P2;Temp;Humidity;BMP_temperature;BMP_pressure;BME280_temperature;BME280_humidity;BME280_pressure;Samples;Min_cycle;Max_cycle;Signal;HPM_P1;HPM_P2
2024/04/18 00:02:16;;;;;;;3.38;1.20;;;;;;;19.63;41.04;101572.19;5444224;26;20006;-71
2024/04/18 00:04:42;;;;;;;4.10;1.88;;;;;;;19.57;40.81;101569.19;5477766;26;19998;-71
2024/04/18 00:07:08;;;;;;;5.55;1.63;;;;;;;19.57;40.82;101563.91;5443625;26;20050;-71
2024/04/18 00:09:34;;;;;;;2.60;1.38;;;;;;;19.61;40.80;101572.34;5471334;26;19994;-71
2024/04/18 00:12:00;;;;;;;3.50;1.20;;;;;;;19.59;40.68;101564.56;5447304;26;20021;-71
2024/04/18 00:14:44;;;;;;;2.30;1.27;;;;;;;19.54;40.83;101569.50;5470721;26;20010;-71
2024/04/18 00:17:16;;;;;;;3.15;1.20;;;;;;;19.53;40.78;101570.44;5471355;26;19998;-71
2024/04/18 00:19:42;;;;;;;3.03;1.23;;;;;;;19.57;40.98;101566.56;5417827;26;19994;-71
2024/04/18 00:22:08;;;;;;;3.47;1.23;;;;;;;19.55;41.04;101570.31;5440994;26;20017;-71
2024/04/18 00:24:34;;;;;;;2.67;1.20;;;;;;;19.52;41.12;101565.31;5472742;26;20304;-71
2024/04/18 00:27:20;;;;;;;2.30;1.20;;;;;;;19.52;40.57;101570.59;5492595;25;20068;-71
2024/04/18 00:29:46;;;;;;;2.70;1.30;;;;;;;19.53;41.02;101573.09;5472851;26;20010;-71
2024/04/18 00:32:14;;;;;;;2.50;1.13;;;;;;;19.55;40.96;101570.31;5471608;26;20005;-71
2024/04/18 00:34:59;;;;;;;2.60;1.30;;;;;;;19.49;41.07;101578.84;5468361;26;20075;-70
2024/04/18 00:37:36;;;;;;;2.88;1.45;;;;;;;19.50;40.88;101573.41;5445831;26;20009;-71
2024/04/18 00:40:02;;;;;;;3.75;1.55;;;;;;;19.47;40.83;101575.56;5462150;26;20002;-71
2024/04/18 00:42:35;;;;;;;2.38;1.30;;;;;;;19.48;40.91;101571.91;5469764;26;20067;-71
2024/04/18 00:45:05;;;;;;;2.30;1.23;;;;;;;19.49;41.07;101582.31;5471212;26;20039;-71
2024/04/18 00:47:42;;;;;;;2.22;1.10;;;;;;;19.51;40.93;101582.16;5471114;26;20008;-71
2024/04/18 00:50:10;;;;;;;2.88;1.75;;;;;;;19.44;41.14;101584.63;5468707;26;20012;-71
2024/04/18 00:52:39;;;;;;;2.22;1.23;;;;;;;19.43;41.00;101577.69;5471942;26;20056;-71
2024/04/18 00:55:06;;;;;;;3.33;1.55;;;;;;;19.43;40.74;101582.97;5477431;26;20017;-71
2024/04/18 00:57:35;;;;;;;2.58;1.20;;;;;;;19.43;41.04;101582.97;5472687;26;20065;-71
2024/04/18 01:00:04;;;;;;;1.85;0.93;;;;;;;19.43;40.65;101580.34;5442262;26;20013;-72
2024/04/18 01:02:50;;;;;;;2.22;1.30;;;;;;;19.38;40.92;101584.41;5474652;26;20038;-71
2024/04/18 01:05:32;;;;;;;2.95;1.02;;;;;;;19.34;40.73;101581.25;5473278;26;20021;-73
2024/04/18 01:07:58;;;;;;;2.13;0.90;;;;;;;19.39;40.83;101594.84;5442615;26;20054;-72
2024/04/18 01:10:24;;;;;;;2.38;1.17;;;;;;;19.38;40.94;101594.97;5473630;26;20056;-72
2024/04/18 01:13:00;;;;;;;2.13;1.10;;;;;;;19.40;40.98;101590.41;5474328;26;20009;-73
2024/04/18 01:15:45;;;;;;;1.83;0.95;;;;;;;19.37;40.70;101588.88;5445742;26;20013;-72
2024/04/18 01:18:11;;;;;;;2.38;1.00;;;;;;;19.36;40.98;101592.50;5472834;26;20790;-73
2024/04/18 01:20:38;;;;;;;1.98;1.40;;;;;;;19.33;40.95;101588.34;5471948;26;20016;-72
2024/04/18 01:23:04;;;;;;;3.03;1.10;;;;;;;19.36;41.11;101599.59;5470856;26;20009;-73
2024/04/18 01:25:42;;;;;;;2.30;1.02;;;;;;;19.35;40.98;101590.00;5468274;26;20199;-73
2024/04/18 01:28:08;;;;;;;2.20;0.93;;;;;;;19.31;41.15;101600.91;5499782;25;19998;-73
2024/04/18 01:30:54;;;;;;;1.55;0.85;;;;;;;19.30;40.93;101603.69;5445196;26;19999;-73
2024/04/18 01:33:20;;;;;;;2.38;1.05;;;;;;;19.31;40.98;101602.72;5468832;26;20010;-72
2024/04/18 01:35:46;;;;;;;1.92;1.00;;;;;;;19.30;40.94;101601.06;5468609;26;20002;-72
2024/04/18 01:38:21;;;;;;;2.72;1.20;;;;;;;19.27;40.84;101596.94;5469495;26;20704;-72
2024/04/18 01:40:47;;;;;;;2.22;1.00;;;;;;;19.31;40.58;101592.16;5472204;26;20793;-72
2024/04/18 01:43:32;;;;;;;3.33;1.10;;;;;;;19.26;41.04;101600.56;5469832;26;20013;-73
2024/04/18 01:46:18;;;;;;;2.00;1.00;;;;;;;19.24;40.71;101601.69;5469880;26;20052;-72
2024/04/18 01:48:58;;;;;;;1.92;0.90;;;;;;;19.23;40.81;101598.22;5467741;26;20002;-72
2024/04/18 01:51:44;;;;;;;1.80;1.10;;;;;;;19.20;41.15;101608.25;5470874;26;20013;-73
2024/04/18 01:54:29;;;;;;;2.28;1.08;;;;;;;19.19;41.15;101601.31;5470363;26;20017;-72
2024/04/18 01:56:55;;;;;;;2.17;1.10;;;;;;;19.21;40.81;101604.63;5438835;26;20002;-72
2024/04/18 01:59:21;;;;;;;1.38;0.90;;;;;;;19.35;40.86;101613.78;5474063;26;19994;-73
2024/04/18 02:01:47;;;;;;;2.08;0.98;;;;;;;19.35;40.73;101608.50;5470360;26;20016;-71
2024/04/18 02:04:13;;;;;;;2.10;1.15;;;;;;;19.34;40.68;101618.25;5442890;26;20005;-72
2024/04/18 02:06:40;;;;;;;2.45;1.10;;;;;;;19.28;40.80;101608.31;5475348;26;19994;-72
2024/04/18 02:09:24;;;;;;;2.05;0.90;;;;;;;19.35;40.66;101611.16;5445836;26;20006;-72
2024/04/18 02:11:50;;;;;;;1.58;0.90;;;;;;;19.36;40.73;101621.53;5470505;26;19998;-72
2024/04/18 02:14:35;;;;;;;1.58;1.15;;;;;;;19.29;41.03;101612.59;5472278;26;20021;-72
2024/04/18 02:17:01;;;;;;;1.30;0.90;;;;;;;19.31;40.77;101624.66;5440227;26;20002;-72
2024/04/18 02:19:26;;;;;;;3.50;1.40;;;;;;;19.31;40.90;101626.47;5473539;26;20009;-72
2024/04/18 02:22:11;;;;;;;2.08;0.90;;;;;;;19.27;40.83;101625.16;5473783;26;20046;-72
2024/04/18 02:24:58;;;;;;;1.60;0.80;;;;;;;19.28;41.07;101619.72;5473295;26;20005;-72
2024/04/18 02:27:24;;;;;;;2.47;0.85;;;;;;;19.27;40.84;101619.88;5471830;26;20016;-72
2024/04/18 02:29:50;;;;;;;1.67;0.85;;;;;;;19.19;41.20;101619.78;5471411;26;23340;-72
2024/04/18 02:32:37;;;;;;;2.20;0.98;;;;;;;19.23;40.90;101626.44;5442597;26;20034;-71
2024/04/18 02:35:03;;;;;;;2.30;0.70;;;;;;;19.19;41.08;101618.00;5409102;26;20037;-72
2024/04/18 02:37:30;;;;;;;1.52;0.80;;;;;;;19.24;41.02;101623.66;5465646;26;20010;-72
2024/04/18 02:39:56;;;;;;;1.50;0.77;;;;;;;19.22;41.10;101630.91;5463901;26;20038;-71
2024/04/18 02:42:25;;;;;;;2.65;1.10;;;;;;;19.19;40.96;101636.47;5443467;26;20005;-71
2024/04/18 02:44:59;;;;;;;1.63;0.75;;;;;;;19.21;41.08;101636.31;5436669;26;19998;-71
2024/04/18 02:47:26;;;;;;;2.00;0.90;;;;;;;19.18;41.14;101637.47;5474175;26;20075;-70
2024/04/18 02:50:04;;;;;;;1.95;1.10;;;;;;;19.13;41.09;101645.03;5473796;26;19990;-70
2024/04/18 02:52:30;;;;;;;2.83;0.80;;;;;;;19.20;41.05;101648.69;5471378;26;20010;-71
2024/04/18 02:54:56;;;;;;;1.95;0.80;;;;;;;19.15;40.95;101653.63;5440141;26;20020;-71
2024/04/18 02:57:23;;;;;;;1.52;0.60;;;;;;;19.15;40.93;101652.78;5476213;26;20021;-71
2024/04/18 02:59:50;;;;;;;1.95;0.73;;;;;;;19.13;41.36;101655.59;5474275;26;20013;-71
2024/04/18 03:02:24;;;;;;;1.60;0.75;;;;;;;19.10;40.89;101652.44;5473648;26;20076;-71
2024/04/18 03:04:50;;;;;;;1.30;0.70;;;;;;;19.09;41.05;101653.41;5471646;26;20014;-71
2024/04/18 03:07:16;;;;;;;1.27;0.70;;;;;;;19.12;41.28;101653.09;5475659;26;20247;-71
2024/04/18 03:09:48;;;;;;;2.03;0.70;;;;;;;19.09;41.15;101658.69;5440729;26;20491;-72
2024/04/18 03:12:27;;;;;;;1.42;0.73;;;;;;;19.06;41.37;101664.28;5438916;26;19999;-72
2024/04/18 03:19:25;;;;;;;1.17;0.60;;;;;;;19.04;41.07;101664.44;5467318;26;20413;-72
2024/04/18 03:21:51;;;;;;;1.60;0.73;;;;;;;19.09;41.20;101669.25;5496326;25;20006;-71
2024/04/18 03:24:19;;;;;;;2.95;0.70;;;;;;;19.07;41.11;101673.88;5440485;26;20009;-72
2024/04/18 03:26:46;;;;;;;1.83;0.70;;;;;;;19.07;41.22;101672.06;5468929;26;20039;-72
2024/04/18 03:29:13;;;;;;;1.42;0.57;;;;;;;19.07;41.16;101674.69;5476872;26;20002;-73
2024/04/18 03:31:55;;;;;;;2.17;0.60;;;;;;;19.06;41.22;101680.13;5425221;26;20008;-72
2024/04/18 03:34:41;;;;;;;1.08;0.57;;;;;;;19.02;41.15;101676.94;5473319;26;20864;-72
2024/04/18 03:37:07;;;;;;;0.85;0.50;;;;;;;18.96;41.61;101675.75;5472765;26;20002;-71
2024/04/18 03:39:33;;;;;;;1.33;0.60;;;;;;;18.98;41.18;101678.25;5468649;26;19998;-72
2024/04/18 03:41:59;;;;;;;1.73;0.63;;;;;;;19.04;41.24;101682.91;5470558;26;19999;-70
2024/04/18 03:44:45;;;;;;;1.90;0.60;;;;;;;19.14;40.95;101678.34;5486276;25;20005;-70
2024/04/18 03:47:11;;;;;;;1.45;0.60;;;;;;;19.26;40.87;101694.78;5469816;26;20006;-72
2024/04/18 03:49:37;;;;;;;1.60;0.60;;;;;;;19.29;40.67;101695.31;5473548;26;20837;-72
2024/04/18 03:52:03;;;;;;;1.45;0.57;;;;;;;19.29;40.83;101697.94;5473144;26;20005;-71
2024/04/18 03:54:33;;;;;;;1.38;0.68;;;;;;;19.31;40.70;101697.78;5441660;26;21082;-72
2024/04/18 03:57:02;;;;;;;1.08;0.57;;;;;;;19.26;40.71;101692.16;5471713;26;20094;-72
2024/04/18 03:59:31;;;;;;;1.27;0.70;;;;;;;19.34;40.90;101702.75;5475794;26;20082;-72
2024/04/18 04:01:57;;;;;;;1.20;0.70;;;;;;;19.29;40.78;101705.88;5472326;26;20006;-71
2024/04/18 04:04:23;;;;;;;1.27;0.65;;;;;;;19.28;40.76;101704.22;5444753;26;20489;-72
2024/04/18 04:06:49;;;;;;;1.48;0.55;;;;;;;19.25;40.60;101709.81;5469623;26;20002;-72
2024/04/18 04:09:16;;;;;;;1.30;0.75;;;;;;;19.27;41.06;101707.84;5490827;25;20411;-72
2024/04/18 04:11:42;;;;;;;0.90;0.60;;;;;;;19.25;40.96;101714.25;5465041;26;20668;-71
2024/04/18 04:14:10;;;;;;;0.70;0.40;;;;;;;19.21;41.17;101719.03;5471695;26;19998;-72
2024/04/18 04:16:51;;;;;;;1.15;0.80;;;;;;;19.17;40.72;101714.19;5474581;26;19998;-72
2024/04/18 04:19:17;;;;;;;0.70;0.70;;;;;;;19.19;40.65;101725.41;5472648;26;20264;-72
2024/04/18 04:21:49;;;;;;;0.70;0.60;;;;;;;19.20;40.91;101721.78;5472199;26;20017;-72
2024/04/18 04:24:15;;;;;;;0.93;0.57;;;;;;;19.18;40.88;101724.59;5476849;26;20038;-72
2024/04/18 04:26:48;;;;;;;1.17;0.73;;;;;;;19.13;40.70;101724.22;5471329;26;20134;-72
2024/04/18 04:29:15;;;;;;;1.73;0.90;;;;;;;19.15;41.17;101727.53;5476182;26;19998;-72
2024/04/18 04:31:41;;;;;;;1.23;0.43;;;;;;;19.08;41.11;101721.22;5470444;26;20014;-72
2024/04/18 04:34:07;;;;;;;1.30;0.77;;;;;;;19.09;40.89;101738.72;5476565;26;20394;-72
2024/04/18 04:36:34;;;;;;;2.35;0.70;;;;;;;19.08;41.07;101730.97;5475465;26;19998;-71
2024/04/18 04:39:00;;;;;;;0.98;0.52;;;;;;;19.04;41.29;101730.44;5466052;26;20590;-72
2024/04/18 04:41:39;;;;;;;1.42;0.60;;;;;;;19.05;41.12;101741.81;5470480;26;19994;-72
2024/04/18 04:44:05;;;;;;;0.45;0.30;;;;;;;19.02;41.17;101735.84;5440792;26;20803;-72
2024/04/18 04:46:47;;;;;;;1.92;1.05;;;;;;;19.05;41.28;101739.19;5476190;26;20022;-71
2024/04/18 04:49:16;;;;;;;1.00;0.70;;;;;;;19.00;41.05;101739.63;5477815;26;19995;-70
2024/04/18 04:51:59;;;;;;;1.30;0.77;;;;;;;19.04;41.00;101735.72;5446304;26;20047;-72
2024/04/18 04:54:46;;;;;;;0.90;0.60;;;;;;;18.93;41.19;101736.78;5469642;26;20067;-72
2024/04/18 04:57:13;;;;;;;0.60;0.50;;;;;;;18.96;41.38;101739.09;5470987;26;19998;-72
2024/04/18 04:59:39;;;;;;;1.33;0.60;;;;;;;18.99;41.09;101751.16;5474711;26;20050;-73
2024/04/18 05:02:06;;;;;;;1.15;0.60;;;;;;;18.97;41.12;101742.56;5476199;26;20020;-72
2024/04/18 05:04:48;;;;;;;1.38;0.52;;;;;;;18.98;41.19;101749.50;5470550;26;19994;-72
2024/04/18 05:07:29;;;;;;;;;;;;;;;18.97;41.30;101742.56;5467234;26;20026;-72
2024/04/18 05:09:55;;;;;;;0.43;0.32;;;;;;;18.95;41.08;101755.91;5472248;26;19943;-72
2024/04/18 05:12:21;;;;;;;1.05;0.50;;;;;;;18.96;41.02;101759.38;5464427;26;20414;-72
2024/04/18 05:14:47;;;;;;;1.48;0.52;;;;;;;18.97;40.95;101758.41;5468014;26;20006;-72
2024/04/18 05:17:42;;;;;;;1.23;0.60;;;;;;;18.92;41.05;101758.88;5443831;26;20002;-71
2024/04/18 05:20:11;;;;;;;1.88;0.70;;;;;;;18.95;41.03;101765.66;5492410;25;20405;-70
2024/04/18 05:22:37;;;;;;;1.88;0.70;;;;;;;18.95;40.89;101771.75;5471985;26;20002;-72
2024/04/18 05:25:03;;;;;;;0.85;0.60;;;;;;;18.91;41.21;101764.31;5488619;25;20006;-72
2024/04/18 05:27:29;;;;;;;1.00;0.50;;;;;;;18.93;40.96;101771.09;5460141;26;21853;-72
2024/04/18 05:32:39;;;;;;;0.70;0.40;;;;;;;18.93;41.12;101772.88;5467210;26;20385;-72
2024/04/18 05:35:08;;;;;;;1.08;0.63;;;;;;;18.92;41.22;101772.06;5471146;26;19998;-73
2024/04/18 05:37:34;;;;;;;2.05;0.77;;;;;;;18.94;41.14;101778.03;5467104;26;20021;-72
2024/04/18 05:40:00;;;;;;;1.10;0.80;;;;;;;18.89;41.10;101763.63;5413250;26;20002;-71
2024/04/18 05:42:27;;;;;;;0.88;0.50;;;;;;;18.97;40.73;101783.00;5470365;26;20239;-72
2024/04/18 05:45:08;;;;;;;1.70;0.60;;;;;;;18.92;41.13;101779.97;5468202;26;20010;-73
2024/04/18 05:47:54;;;;;;;1.50;0.68;;;;;;;18.93;40.86;101797.47;5470059;26;20006;-72
2024/04/18 05:50:20;;;;;;;1.38;0.60;;;;;;;18.91;40.83;101804.72;5473585;26;20021;-72
2024/04/18 05:52:47;;;;;;;0.68;0.57;;;;;;;18.95;40.96;101800.78;5466987;26;20407;-72
2024/04/18 05:55:22;;;;;;;0.75;0.40;;;;;;;18.94;40.93;101803.59;5461653;26;20012;-73
2024/04/18 05:57:48;;;;;;;1.65;0.60;;;;;;;18.98;40.89;101802.28;5471893;26;19998;-73
2024/04/18 06:00:32;;;;;;;2.25;0.60;;;;;;;19.18;40.41;101811.72;5470149;26;20133;-72
2024/04/18 06:02:58;;;;;;;2.58;0.70;;;;;;;19.18;40.46;101810.88;5436693;26;20387;-72
2024/04/18 06:05:24;;;;;;;1.30;0.60;;;;;;;19.15;40.82;101812.03;5468789;26;20502;-72
2024/04/18 06:08:09;;;;;;;1.13;0.60;;;;;;;19.15;41.11;101809.38;5442442;26;20012;-72
2024/04/18 06:10:37;;;;;;;1.25;0.60;;;;;;;19.50;40.89;101807.69;5465658;26;20288;-73
2024/04/18 06:13:18;;;;;;;1.38;0.50;;;;;;;19.75;40.69;101811.34;5494365;25;20006;-72
2024/04/18 06:15:45;;;;;;;1.73;0.65;;;;;;;19.83;40.71;101811.44;5467932;26;20013;-73
2024/04/18 06:18:11;;;;;;;0.88;0.60;;;;;;;19.87;40.19;101818.88;5465001;26;19998;-73
2024/04/18 06:20:52;;;;;;;0.82;0.52;;;;;;;19.83;40.69;101816.72;5496288;25;20856;-72
2024/04/18 06:23:18;;;;;;;0.90;0.50;;;;;;;19.75;40.38;101816.66;5465576;26;20051;-73
2024/04/18 06:26:04;;;;;;;1.15;0.50;;;;;;;19.71;40.76;101826.69;5467593;26;20002;-72
2024/04/18 06:28:30;;;;;;;0.85;0.52;;;;;;;19.67;40.64;101827.16;5463498;26;20005;-73
2024/04/18 06:30:56;;;;;;;1.75;0.50;;;;;;;19.71;40.53;101839.91;5470199;26;20022;-74
2024/04/18 06:33:25;;;;;;;0.75;0.55;;;;;;;19.69;40.79;101838.41;5490576;25;20410;-73
2024/04/18 06:35:53;;;;;;;0.95;0.40;;;;;;;19.77;40.48;101833.19;5439847;26;19994;-73
2024/04/18 06:38:19;;;;;;;1.02;0.55;;;;;;;19.85;40.22;101841.16;5469286;26;20002;-72
2024/04/18 06:40:45;;;;;;;1.20;0.50;;;;;;;19.94;40.19;101842.06;5467496;26;20385;-72
2024/04/18 06:43:12;;;;;;;0.90;0.40;;;;;;;19.94;40.18;101848.19;5471999;26;20083;-72
2024/04/18 06:45:38;;;;;;;1.63;0.60;;;;;;;19.96;40.10;101853.31;5489669;25;20006;-72
2024/04/18 06:48:11;;;;;;;1.35;0.50;;;;;;;19.93;40.44;101854.47;5456653;26;20003;-73
2024/04/18 06:50:41;;;;;;;1.30;0.60;;;;;;;19.85;40.33;101857.03;5440230;26;20005;-71
2024/04/18 06:53:07;;;;;;;1.25;0.50;;;;;;;19.87;40.44;101860.34;5466682;26;19998;-72
2024/04/18 06:55:36;;;;;;;0.57;0.43;;;;;;;19.85;40.17;101857.84;5468258;26;20020;-71
2024/04/18 06:58:02;;;;;;;1.63;0.57;;;;;;;19.78;40.37;101843.63;5442838;26;20018;-71
2024/04/18 07:00:28;;;;;;;0.90;0.43;;;;;;;19.80;40.29;101861.97;5434389;26;20002;-71
2024/04/18 07:02:54;;;;;;;1.77;0.70;;;;;;;19.82;40.50;101862.63;5461582;26;20708;-71
2024/04/18 07:05:40;;;;;;;0.95;0.60;;;;;;;19.79;40.13;101866.41;5439721;26;20155;-71
2024/04/18 07:08:21;;;;;;;1.13;0.57;;;;;;;19.75;40.50;101864.22;5441144;26;20006;-71
2024/04/18 07:10:47;;;;;;;0.77;0.40;;;;;;;19.75;40.61;101866.84;5469720;26;20010;-71
2024/04/18 07:13:29;;;;;;;2.45;0.80;;;;;;;19.84;40.11;101863.31;5465946;26;20067;-72
2024/04/18 07:16:03;;;;;;;2.13;0.73;;;;;;;19.85;40.29;101870.25;5471148;26;19998;-72
2024/04/18 07:18:47;;;;;;;0.77;0.50;;;;;;;19.81;40.24;101867.09;5465807;26;20096;-70
2024/04/18 07:21:17;;;;;;;0.60;0.43;;;;;;;19.84;39.99;101872.06;5413675;26;20083;-73
2024/04/18 07:23:43;;;;;;;0.80;0.50;;;;;;;19.86;40.14;101875.38;5470249;26;20008;-74
2024/04/18 07:26:09;;;;;;;0.90;0.60;;;;;;;19.85;40.07;101880.81;5469685;26;20002;-72
2024/04/18 07:28:35;;;;;;;0.95;0.55;;;;;;;19.85;40.13;101881.66;5471674;26;19997;-73
2024/04/18 07:31:01;;;;;;;1.30;0.70;;;;;;;19.82;39.87;101884.59;5471064;26;20096;-72
2024/04/18 07:33:27;;;;;;;0.93;0.52;;;;;;;19.82;39.83;101886.41;5471292;26;20017;-71
2024/04/18 07:35:57;;;;;;;1.08;0.60;;;;;;;19.84;39.87;101879.16;5438717;26;20009;-71
2024/04/18 07:38:29;;;;;;;0.95;0.60;;;;;;;19.73;40.36;101885.50;5444591;26;20000;-70
2024/04/18 07:40:55;;;;;;;6.28;0.73;;;;;;;19.69;39.23;101878.88;5465032;26;20012;-73
2024/04/18 07:43:21;;;;;;;1.98;0.68;;;;;;;19.76;39.61;101885.22;5474824;26;20005;-72
2024/04/18 07:45:47;;;;;;;1.13;0.50;;;;;;;19.75;40.04;101885.34;5471671;26;20002;-74
2024/04/18 07:48:13;;;;;;;2.10;0.60;;;;;;;19.74;40.06;101875.78;5472378;26;20030;-68
2024/04/18 07:50:40;;;;;;;1.00;0.60;;;;;;;19.84;39.79;101889.72;5468061;26;20014;-67
2024/04/18 07:53:06;;;;;;;2.17;0.75;;;;;;;19.91;39.26;101888.13;5464448;26;21351;-66
2024/04/18 07:55:32;;;;;;;1.33;0.70;;;;;;;19.80;39.60;101886.56;5440342;26;20030;-67
2024/04/18 07:57:58;;;;;;;4.95;1.00;;;;;;;19.84;40.15;101895.03;5488575;25;20002;-67
2024/04/18 08:00:24;;;;;;;1.08;0.70;;;;;;;19.89;39.89;101895.38;5468057;26;20013;-68
2024/04/18 08:02:51;;;;;;;2.25;0.50;;;;;;;19.92;39.82;101887.13;5466985;26;20401;-66
2024/04/18 08:05:17;;;;;;;2.17;0.60;;;;;;;19.96;39.49;101893.81;5466464;26;20003;-67
2024/04/18 08:07:43;;;;;;;1.98;0.57;;;;;;;20.07;39.95;101905.91;5437902;26;20004;-66
2024/04/18 08:10:09;;;;;;;2.47;1.00;;;;;;;20.15;39.64;101900.69;5466418;26;20012;-67
2024/04/18 08:12:36;;;;;;;2.95;0.63;;;;;;;20.20;39.35;101890.47;5467188;26;20193;-67
2024/04/18 08:15:03;;;;;;;1.27;0.63;;;;;;;20.19;39.59;101891.47;5464249;26;20013;-67
2024/04/18 08:17:29;;;;;;;3.28;0.75;;;;;;;20.27;39.08;101904.72;5440532;26;20009;-66
2024/04/18 08:19:55;;;;;;;1.98;0.70;;;;;;;20.29;39.25;101901.91;5465821;26;19998;-67
2024/04/18 08:22:21;;;;;;;0.98;0.63;;;;;;;20.26;39.06;101896.94;5437863;26;20208;-67
2024/04/18 08:24:49;;;;;;;2.72;0.50;;;;;;;20.20;39.29;101901.88;5465928;26;20879;-67
2024/04/18 08:27:15;;;;;;;1.55;0.80;;;;;;;20.17;39.25;101898.72;5465946;26;20468;-67
2024/04/18 08:29:41;;;;;;;1.90;0.52;;;;;;;20.17;39.19;101901.38;5437492;26;19998;-67
2024/04/18 08:32:08;;;;;;;1.30;0.60;;;;;;;20.15;39.71;101906.00;5475758;26;20382;-67
2024/04/18 08:34:36;;;;;;;2.08;0.40;;;;;;;20.16;39.53;101899.72;5468320;26;20063;-67
2024/04/18 08:37:06;;;;;;;2.15;0.70;;;;;;;20.22;39.69;101904.38;5468186;26;20013;-66
2024/04/18 08:39:32;;;;;;;2.72;0.90;;;;;;;20.29;39.00;101896.63;5438795;26;20723;-68
2024/04/18 08:41:59;;;;;;;0.65;0.40;;;;;;;20.19;39.07;101902.03;5432104;26;20002;-68
2024/04/18 08:44:28;;;;;;;1.05;0.60;;;;;;;20.30;39.08;101900.97;5469714;26;20002;-67
2024/04/18 08:46:56;;;;;;;1.00;0.65;;;;;;;20.31;39.00;101899.97;5469731;26;20010;-68
2024/04/18 08:49:25;;;;;;;1.70;0.52;;;;;;;20.35;39.42;101902.13;5462824;26;20071;-68
2024/04/18 08:51:51;;;;;;;;;;;;;;;20.31;39.45;101899.97;5473596;26;20002;-68
2024/04/18 08:54:17;;;;;;;1.45;0.52;;;;;;;20.27;39.66;101898.59;5472296;26;20285;-68
2024/04/18 08:56:47;;;;;;;1.58;0.60;;;;;;;20.23;39.18;101906.84;5465892;26;20019;-67
2024/04/18 08:59:14;;;;;;;1.13;0.55;;;;;;;20.18;38.96;101910.97;5466272;26;20010;-67
2024/04/18 09:01:42;;;;;;;1.50;0.80;;;;;;;20.20;39.52;101919.56;5467549;26;20002;-68
2024/04/18 09:04:08;;;;;;;1.83;0.57;;;;;;;20.19;38.80;101920.56;5436067;26;20096;-67
2024/04/18 09:06:34;;;;;;;1.60;0.75;;;;;;;20.14;38.94;101921.03;5469599;26;20007;-68
2024/04/18 09:09:04;;;;;;;1.50;0.70;;;;;;;20.12;38.57;101917.72;5470403;26;20303;-66
2024/04/18 09:11:30;;;;;;;1.60;0.80;;;;;;;20.11;38.52;101917.88;5463897;26;19998;-67
2024/04/18 09:13:56;;;;;;;1.60;0.98;;;;;;;20.13;38.83;101906.16;5463904;26;20071;-68
2024/04/18 09:16:23;;;;;;;1.67;0.63;;;;;;;20.14;39.12;101920.19;5431814;26;20017;-67
2024/04/18 09:18:50;;;;;;;1.17;0.47;;;;;;;20.11;39.05;101902.81;5468197;26;19998;-66
2024/04/18 09:21:16;;;;;;;1.27;0.68;;;;;;;20.16;38.91;101899.72;5469448;26;20070;-66
2024/04/18 09:23:42;;;;;;;0.82;0.45;;;;;;;20.15;39.39;101913.91;5469010;26;20731;-66
2024/04/18 09:26:08;;;;;;;2.15;0.70;;;;;;;20.20;38.61;101906.34;5433112;26;20003;-67
2024/04/18 09:28:34;;;;;;;1.00;0.50;;;;;;;20.18;38.63;101900.38;5468082;26;20458;-66
2024/04/18 09:31:01;;;;;;;1.15;0.57;;;;;;;20.16;38.84;101910.28;5470290;26;20021;-67
2024/04/18 09:33:27;;;;;;;1.10;0.50;;;;;;;20.13;38.51;101922.00;5463896;26;20015;-67
2024/04/18 09:35:57;;;;;;;1.85;0.80;;;;;;;20.14;38.58;101917.56;5467843;26;20326;-65
2024/04/18 09:38:29;;;;;;;1.38;0.55;;;;;;;20.14;38.70;101917.56;5469445;26;20002;-66
2024/04/18 09:41:09;;;;;;;1.23;0.50;;;;;;;20.14;38.71;101920.19;5462496;26;20016;-66
2024/04/18 09:43:44;;;;;;;1.48;0.55;;;;;;;20.12;38.67;101912.41;5464187;26;20018;-67
2024/04/18 09:46:11;;;;;;;2.25;0.85;;;;;;;20.15;38.71;101906.00;5468831;26;20745;-66
2024/04/18 09:48:37;;;;;;;3.33;0.70;;;;;;;20.16;38.46;101912.94;5470484;26;20019;-66
2024/04/18 09:51:06;;;;;;;2.08;0.80;;;;;;;20.16;38.97;101912.94;5468869;26;19998;-66
2024/04/18 09:53:32;;;;;;;1.50;0.65;;;;;;;20.14;38.57;101914.91;5469280;26;20008;-66
2024/04/18 09:56:02;;;;;;;0.88;0.60;;;;;;;20.15;39.03;101914.75;5462413;26;20002;-66
2024/04/18 09:58:28;;;;;;;1.40;0.70;;;;;;;20.13;38.78;101915.88;5468068;26;20079;-66
2024/04/18 10:00:58;;;;;;;1.38;0.60;;;;;;;20.10;38.62;101902.94;5466024;26;20001;-67
2024/04/18 10:03:28;;;;;;;2.20;0.77;;;;;;;20.12;39.04;101915.06;5461472;26;20748;-67
2024/04/18 10:05:58;;;;;;;2.40;0.60;;;;;;;20.16;38.64;101913.75;5462168;26;19995;-66
2024/04/18 10:08:30;;;;;;;2.75;0.63;;;;;;;20.15;38.42;101913.91;5465760;26;20002;-66
2024/04/18 10:10:57;;;;;;;1.50;0.70;;;;;;;20.16;39.01;101913.75;5468362;26;20013;-65
2024/04/18 10:13:24;;;;;;;1.00;0.60;;;;;;;20.18;38.67;101913.59;5464605;26;20014;-66
2024/04/18 10:15:50;;;;;;;1.13;0.50;;;;;;;20.16;38.77;101905.00;5436214;26;22453;-66
2024/04/18 10:18:18;;;;;;;2.08;0.85;;;;;;;20.15;38.66;101916.56;5464162;26;20010;-66
2024/04/18 10:20:44;;;;;;;2.53;0.68;;;;;;;20.18;38.61;101909.16;5464563;26;20008;-67
2024/04/18 10:23:14;;;;;;;1.85;0.50;;;;;;;20.14;38.46;101902.50;5459054;26;20010;-68
2024/04/18 10:25:43;;;;;;;1.88;0.80;;;;;;;20.18;38.50;101908.31;5463262;26;20002;-68
2024/04/18 10:28:25;;;;;;;2.92;0.90;;;;;;;20.03;38.80;101908.03;5429919;26;19998;-67
2024/04/18 10:30:51;;;;;;;1.25;0.70;;;;;;;20.11;38.69;101921.34;5459907;26;20041;-68
2024/04/18 10:33:26;;;;;;;1.65;0.70;;;;;;;20.13;38.57;101922.00;5460851;26;20010;-67
2024/04/18 10:35:53;;;;;;;2.05;0.52;;;;;;;20.17;38.94;101919.88;5458096;26;20010;-68
2024/04/18 10:38:26;;;;;;;1.27;0.50;;;;;;;20.22;37.92;101917.59;5459690;26;20016;-67
2024/04/18 10:41:05;;;;;;;3.72;0.68;;;;;;;20.28;38.26;101919.59;5461852;26;20226;-67
2024/04/18 10:43:34;;;;;;;1.52;0.40;;;;;;;20.41;38.01;101925.34;5455139;26;20071;-67
2024/04/18 10:46:01;;;;;;;2.10;0.80;;;;;;;20.27;38.46;101928.53;5462834;26;20006;-67
2024/04/18 10:48:27;;;;;;;1.88;0.60;;;;;;;20.38;38.29;101938.84;5465056;26;20010;-66
2024/04/18 10:50:54;;;;;;;2.22;0.98;;;;;;;20.41;38.17;101930.63;5459014;26;20010;-67
2024/04/18 10:53:20;;;;;;;1.63;0.70;;;;;;;20.43;38.35;101930.47;5460602;26;20004;-65
2024/04/18 10:55:47;;;;;;;5.15;0.73;;;;;;;20.44;38.21;101930.31;5456194;26;20028;-66
2024/04/18 10:58:16;;;;;;;2.63;0.85;;;;;;;20.38;37.98;101936.22;5456733;26;20037;-66
2024/04/18 11:00:43;;;;;;;1.17;0.65;;;;;;;20.35;38.38;101931.22;5462343;26;20013;-66
2024/04/18 11:03:09;;;;;;;3.47;0.70;;;;;;;20.37;38.79;101931.91;5400109;26;20006;-67
2024/04/18 11:05:40;;;;;;;0.75;0.60;;;;;;;20.33;38.99;101938.50;5462871;26;19998;-65
2024/04/18 11:08:19;;;;;;;1.17;0.60;;;;;;;20.31;38.77;101935.19;5468565;26;20039;-67
2024/04/18 11:10:46;;;;;;;2.22;0.80;;;;;;;20.29;38.65;101923.94;5469971;26;20025;-65
2024/04/18 11:13:15;;;;;;;0.98;0.50;;;;;;;20.28;38.48;101929.34;5457881;26;20402;-65
2024/04/18 11:15:41;;;;;;;2.45;0.70;;;;;;;20.29;39.00;101931.00;5466523;26;20013;-66
2024/04/18 11:18:07;;;;;;;0.98;0.65;;;;;;;20.28;38.78;101935.47;5461509;26;20454;-65
2024/04/18 11:20:34;;;;;;;0.98;0.50;;;;;;;20.27;38.76;101930.34;5403626;26;20002;-67
2024/04/18 11:23:03;;;;;;;2.03;0.90;;;;;;;20.23;39.22;101929.81;5457063;26;20028;-66
2024/04/18 11:25:30;;;;;;;1.27;0.63;;;;;;;20.26;38.67;101924.22;5437210;26;20046;-67
2024/04/18 11:28:06;;;;;;;1.42;0.70;;;;;;;20.27;38.70;101931.16;5465215;26;20067;-66
2024/04/18 11:30:33;;;;;;;1.35;0.80;;;;;;;20.30;38.56;101927.41;5466899;26;20014;-66
2024/04/18 11:32:59;;;;;;;1.23;0.60;;;;;;;20.32;38.76;101928.06;5466213;26;20093;-66
2024/04/18 11:35:26;;;;;;;0.88;0.55;;;;;;;20.31;38.71;101926.41;5466496;26;20002;-67
2024/04/18 11:37:55;;;;;;;2.40;0.70;;;;;;;20.33;38.70;101929.72;5438946;26;20012;-67
2024/04/18 11:40:21;;;;;;;2.97;0.68;;;;;;;20.30;39.13;101932.69;5463224;26;19994;-65
2024/04/18 11:42:47;;;;;;;1.42;0.60;;;;;;;20.35;38.87;101927.75;5464355;26;19998;-66
2024/04/18 11:45:13;;;;;;;1.35;0.60;;;;;;;20.32;38.90;101920.13;5471119;26;20013;-66
2024/04/18 11:47:39;;;;;;;2.15;0.70;;;;;;;20.30;38.47;101920.31;5468060;26;20543;-67